sensor_id;sensor_type;location;lat;lon;timestamp;noise_LAeq;noise_LA_min;noise_LA_max;noise_LA01;noise_LA95
73822;Laerm;62152;52.078;8.414;2023-04-19T00:03:59;54.66;53.24;55.78;;
73822;Laerm;62152;52.078;8.414;2023-04-19T00:08:00;54.65;53.24;55.77;;
73822;Laerm;62152;52.078;8.414;2023-04-19T00:12:02;54.66;53.47;55.98;;
73822;Laerm;62152;52.078;8.414;2023-04-19T00:20:07;54.64;52.33;55.72;;
73822;Laerm;62152;52.078;8.414;2023-04-19T00:24:08;54.66;53.37;57.15;;
73822;Laerm;62152;52.078;8.414;2023-04-19T00:28:10;54.66;53.12;56.04;;
73822;Laerm;62152;52.078;8.414;2023-04-19T00:32:11;54.66;53.25;58.71;;
73822;Laerm;62152;52.078;8.414;2023-04-19T00:36:12;54.65;53.42;55.97;;
73822;Laerm;62152;52.078;8.414;2023-04-19T00:40:13;54.64;52.84;55.84;;
73822;Laerm;62152;52.078;8.414;2023-04-19T00:44:15;54.65;53.30;55.79;;
73822;Laerm;62152;52.078;8.414;2023-04-19T00:48:17;54.88;53.40;61.05;;
73822;Laerm;62152;52.078;8.414;2023-04-19T00:52:21;54.66;53.28;55.90;;
73822;Laerm;62152;52.078;8.414;2023-04-19T00:56:26;54.65;53.26;55.90;;
73822;Laerm;62152;52.078;8.414;2023-04-19T01:00:28;54.66;53.20;55.87;;
73822;Laerm;62152;52.078;8.414;2023-04-19T01:04:29;54.66;53.34;55.94;;
73822;Laerm;62152;52.078;8.414;2023-04-19T01:08:30;54.67;53.36;55.84;;
73822;Laerm;62152;52.078;8.414;2023-04-19T01:12:31;54.66;53.37;59.29;;
73822;Laerm;62152;52.078;8.414;2023-04-19T01:20:34;54.65;53.08;55.83;;
73822;Laerm;62152;52.078;8.414;2023-04-19T01:24:36;54.67;53.28;55.86;;
73822;Laerm;62152;52.078;8.414;2023-04-19T01:28:37;54.67;53.44;55.95;;
73822;Laerm;62152;52.078;8.414;2023-04-19T01:36:38;54.64;52.96;56.60;;
73822;Laerm;62152;52.078;8.414;2023-04-19T01:40:42;54.66;53.22;55.89;;
73822;Laerm;62152;52.078;8.414;2023-04-19T01:44:43;54.68;53.32;56.40;;
73822;Laerm;62152;52.078;8.414;2023-04-19T01:48:44;54.68;53.39;56.02;;
73822;Laerm;62152;52.078;8.414;2023-04-19T01:52:45;54.67;53.22;55.82;;
73822;Laerm;62152;52.078;8.414;2023-04-19T01:56:47;54.68;53.33;55.85;;
73822;Laerm;62152;52.078;8.414;2023-04-19T02:00:48;54.67;53.23;55.82;;
73822;Laerm;62152;52.078;8.414;2023-04-19T02:04:49;54.67;53.51;55.76;;
73822;Laerm;62152;52.078;8.414;2023-04-19T02:08:49;54.66;53.30;56.06;;
73822;Laerm;62152;52.078;8.414;2023-04-19T02:12:53;54.66;53.17;55.91;;
73822;Laerm;62152;52.078;8.414;2023-04-19T02:16:54;54.66;53.24;55.88;;
73822;Laerm;62152;52.078;8.414;2023-04-19T02:20:55;54.67;53.29;56.04;;
73822;Laerm;62152;52.078;8.414;2023-04-19T02:24:57;54.66;53.25;55.91;;
73822;Laerm;62152;52.078;8.414;2023-04-19T02:29:06;54.66;53.42;55.87;;
73822;Laerm;62152;52.078;8.414;2023-04-19T02:33:06;54.66;53.18;56.26;;
73822;Laerm;62152;52.078;8.414;2023-04-19T02:41:09;54.64;52.73;55.83;;
73822;Laerm;62152;52.078;8.414;2023-04-19T02:49:15;54.87;53.04;61.96;;
73822;Laerm;62152;52.078;8.414;2023-04-19T02:53:16;54.66;53.28;55.96;;
73822;Laerm;62152;52.078;8.414;2023-04-19T02:57:17;54.67;53.36;55.87;;
73822;Laerm;62152;52.078;8.414;2023-04-19T03:01:20;54.68;53.26;55.92;;
73822;Laerm;62152;52.078;8.414;2023-04-19T03:05:21;54.68;53.26;55.89;;
73822;Laerm;62152;52.078;8.414;2023-04-19T03:09:22;54.68;53.36;56.05;;
73822;Laerm;62152;52.078;8.414;2023-04-19T03:13:23;54.67;53.47;55.93;;
73822;Laerm;62152;52.078;8.414;2023-04-19T03:17:25;54.67;53.53;56.05;;
73822;Laerm;62152;52.078;8.414;2023-04-19T03:25:28;58.14;53.01;81.24;;
73822;Laerm;62152;52.078;8.414;2023-04-19T03:29:39;56.76;53.34;83.95;;
73822;Laerm;62152;52.078;8.414;2023-04-19T03:33:45;54.67;53.49;55.97;;
73822;Laerm;62152;52.078;8.414;2023-04-19T03:37:47;54.68;53.32;56.36;;
73822;Laerm;62152;52.078;8.414;2023-04-19T03:41:48;54.72;52.89;69.57;;
73822;Laerm;62152;52.078;8.414;2023-04-19T03:45:55;54.69;53.13;57.60;;
73822;Laerm;62152;52.078;8.414;2023-04-19T03:49:58;56.20;53.53;77.79;;
73822;Laerm;62152;52.078;8.414;2023-04-19T03:53:59;57.41;53.21;79.08;;
73822;Laerm;62152;52.078;8.414;2023-04-19T03:58:02;57.13;51.29;81.22;;
73822;Laerm;62152;52.078;8.414;2023-04-19T04:02:11;60.19;51.64;78.31;;
73822;Laerm;62152;52.078;8.414;2023-04-19T04:06:14;56.22;51.99;77.51;;
73822;Laerm;62152;52.078;8.414;2023-04-19T04:10:15;55.77;52.38;78.19;;
73822;Laerm;62152;52.078;8.414;2023-04-19T04:14:17;55.07;52.62;76.30;;
73822;Laerm;62152;52.078;8.414;2023-04-19T04:18:20;54.94;52.16;69.32;;
73822;Laerm;62152;52.078;8.414;2023-04-19T04:22:23;54.72;53.31;55.99;;
73822;Laerm;62152;52.078;8.414;2023-04-19T04:26:24;54.71;53.41;55.94;;
73822;Laerm;62152;52.078;8.414;2023-04-19T04:38:51;54.69;52.36;57.06;;
73822;Laerm;62152;52.078;8.414;2023-04-19T04:42:54;54.72;53.41;55.99;;
73822;Laerm;62152;52.078;8.414;2023-04-19T04:46:55;54.93;53.44;61.68;;
73822;Laerm;62152;52.078;8.414;2023-04-19T04:51:00;54.71;53.48;56.00;;
73822;Laerm;62152;52.078;8.414;2023-04-19T04:55:05;54.72;53.46;55.94;;
73822;Laerm;62152;52.078;8.414;2023-04-19T04:59:09;54.72;53.53;55.89;;
73822;Laerm;62152;52.078;8.414;2023-04-19T05:03:13;54.74;53.34;55.83;;
73822;Laerm;62152;52.078;8.414;2023-04-19T05:11:23;54.70;52.70;55.97;;
73822;Laerm;62152;52.078;8.414;2023-04-19T05:15:24;54.73;53.45;56.01;;
73822;Laerm;62152;52.078;8.414;2023-04-19T05:19:28;54.73;53.22;56.56;;
73822;Laerm;62152;52.078;8.414;2023-04-19T05:27:38;54.71;52.17;56.11;;
73822;Laerm;62152;52.078;8.414;2023-04-19T05:31:39;54.73;53.31;55.93;;
73822;Laerm;62152;52.078;8.414;2023-04-19T05:35:50;54.73;53.31;55.93;;
73822;Laerm;62152;52.078;8.414;2023-04-19T05:39:51;54.72;53.46;55.85;;
73822;Laerm;62152;52.078;8.414;2023-04-19T05:43:54;54.71;53.36;56.03;;
73822;Laerm;62152;52.078;8.414;2023-04-19T05:47:55;54.71;53.48;56.06;;
73822;Laerm;62152;52.078;8.414;2023-04-19T05:52:15;54.71;53.46;55.92;;
73822;Laerm;62152;52.078;8.414;2023-04-19T05:56:35;54.71;53.05;56.05;;
73822;Laerm;62152;52.078;8.414;2023-04-19T06:00:37;54.71;53.45;55.81;;
73822;Laerm;62152;52.078;8.414;2023-04-19T06:04:44;54.71;53.50;56.09;;
73822;Laerm;62152;52.078;8.414;2023-04-19T06:08:45;54.71;52.98;56.26;;
73822;Laerm;62152;52.078;8.414;2023-04-19T06:12:46;54.70;53.42;55.86;;
73822;Laerm;62152;52.078;8.414;2023-04-19T06:16:48;54.70;53.32;55.87;;
73822;Laerm;62152;52.078;8.414;2023-04-19T06:20:49;54.70;53.22;56.99;;
73822;Laerm;62152;52.078;8.414;2023-04-19T06:24:50;54.70;53.32;56.29;;
73822;Laerm;62152;52.078;8.414;2023-04-19T06:28:50;54.70;53.35;56.00;;
73822;Laerm;62152;52.078;8.414;2023-04-19T06:32:53;54.70;53.05;56.31;;
73822;Laerm;62152;52.078;8.414;2023-04-19T06:36:53;54.69;53.45;56.21;;
73822;Laerm;62152;52.078;8.414;2023-04-19T06:40:54;54.68;53.33;56.77;;
73822;Laerm;62152;52.078;8.414;2023-04-19T06:44:55;54.70;53.30;56.53;;
73822;Laerm;62152;52.078;8.414;2023-04-19T06:48:57;54.93;53.35;61.28;;
73822;Laerm;62152;52.078;8.414;2023-04-19T06:56:59;54.67;53.01;55.83;;
73822;Laerm;62152;52.078;8.414;2023-04-19T07:01:01;54.69;53.16;55.86;;
73822;Laerm;62152;52.078;8.414;2023-04-19T07:05:05;54.71;53.45;55.97;;
73822;Laerm;62152;52.078;8.414;2023-04-19T07:09:06;54.71;53.07;57.85;;
73822;Laerm;62152;52.078;8.414;2023-04-19T07:13:07;54.71;53.47;55.96;;
73822;Laerm;62152;52.078;8.414;2023-04-19T07:17:08;54.71;53.21;56.35;;
73822;Laerm;62152;52.078;8.414;2023-04-19T07:21:10;54.71;53.41;55.96;;
73822;Laerm;62152;52.078;8.414;2023-04-19T07:25:11;54.71;53.38;56.08;;
73822;Laerm;62152;52.078;8.414;2023-04-19T07:33:13;54.68;52.37;56.06;;
73822;Laerm;62152;52.078;8.414;2023-04-19T07:37:15;54.70;53.40;55.86;;
73822;Laerm;62152;52.078;8.414;2023-04-19T07:41:16;54.70;53.42;56.11;;
73822;Laerm;62152;52.078;8.414;2023-04-19T07:45:17;54.70;53.35;55.81;;
73822;Laerm;62152;52.078;8.414;2023-04-19T07:49:18;54.69;53.40;55.98;;
73822;Laerm;62152;52.078;8.414;2023-04-19T07:53:20;54.69;53.06;56.04;;
73822;Laerm;62152;52.078;8.414;2023-04-19T07:57:21;54.69;53.40;55.96;;
73822;Laerm;62152;52.078;8.414;2023-04-19T08:01:22;54.68;53.36;55.96;;
73822;Laerm;62152;52.078;8.414;2023-04-19T08:05:23;54.68;53.44;55.85;;
73822;Laerm;62152;52.078;8.414;2023-04-19T08:09:25;54.68;53.41;55.83;;
73822;Laerm;62152;52.078;8.414;2023-04-19T08:13:26;54.68;53.36;56.20;;
73822;Laerm;62152;52.078;8.414;2023-04-19T08:17:27;54.68;53.23;55.87;;
73822;Laerm;62152;52.078;8.414;2023-04-19T08:21:28;54.69;53.18;56.82;;
73822;Laerm;62152;52.078;8.414;2023-04-19T08:25:30;54.69;53.51;56.01;;
73822;Laerm;62152;52.078;8.414;2023-04-19T08:37:32;54.68;51.86;56.08;;
73822;Laerm;62152;52.078;8.414;2023-04-19T08:41:35;54.70;53.20;55.91;;
73822;Laerm;62152;52.078;8.414;2023-04-19T08:45:36;54.70;53.22;55.81;;
73822;Laerm;62152;52.078;8.414;2023-04-19T08:49:38;54.91;53.40;61.54;;
73822;Laerm;62152;52.078;8.414;2023-04-19T08:53:41;54.70;53.26;55.96;;
73822;Laerm;62152;52.078;8.414;2023-04-19T08:57:43;54.69;52.92;55.93;;
73822;Laerm;62152;52.078;8.414;2023-04-19T09:01:44;54.70;53.22;56.03;;
73822;Laerm;62152;52.078;8.414;2023-04-19T09:05:45;54.70;53.40;56.68;;
73822;Laerm;62152;52.078;8.414;2023-04-19T09:10:04;54.71;53.12;55.85;;
73822;Laerm;62152;52.078;8.414;2023-04-19T09:14:12;54.70;53.30;55.89;;
73822;Laerm;62152;52.078;8.414;2023-04-19T09:18:13;54.69;53.26;56.11;;
73822;Laerm;62152;52.078;8.414;2023-04-19T09:22:15;54.70;53.38;55.86;;
73822;Laerm;62152;52.078;8.414;2023-04-19T09:26:16;54.69;53.15;55.91;;
73822;Laerm;62152;52.078;8.414;2023-04-19T09:30:24;54.69;52.20;56.24;;
73822;Laerm;62152;52.078;8.414;2023-04-19T09:34:25;54.70;53.43;55.87;;
73822;Laerm;62152;52.078;8.414;2023-04-19T09:38:26;54.68;53.19;55.85;;
73822;Laerm;62152;52.078;8.414;2023-04-19T09:42:45;54.68;53.17;56.02;;
73822;Laerm;62152;52.078;8.414;2023-04-19T09:46:47;54.69;53.33;56.29;;
73822;Laerm;62152;52.078;8.414;2023-04-19T09:50:54;54.69;53.33;56.29;;
73822;Laerm;62152;52.078;8.414;2023-04-19T09:55:00;54.68;53.34;55.99;;
73822;Laerm;62152;52.078;8.414;2023-04-19T10:03:08;54.67;52.80;66.86;;
73822;Laerm;62152;52.078;8.414;2023-04-19T10:07:10;54.69;52.74;56.33;;
73822;Laerm;62152;52.078;8.414;2023-04-19T10:11:12;54.70;53.04;58.14;;
73822;Laerm;62152;52.078;8.414;2023-04-19T10:15:13;54.70;53.48;57.50;;
73822;Laerm;62152;52.078;8.414;2023-04-19T10:19:18;54.71;53.25;56.67;;
73822;Laerm;62152;52.078;8.414;2023-04-19T10:23:21;54.68;53.35;55.91;;
73822;Laerm;62152;52.078;8.414;2023-04-19T10:27:24;54.69;53.45;56.02;;
73822;Laerm;62152;52.078;8.414;2023-04-19T10:35:35;54.67;53.01;56.44;;
73822;Laerm;62152;52.078;8.414;2023-04-19T10:39:42;54.69;53.40;55.88;;
73822;Laerm;62152;52.078;8.414;2023-04-19T10:43:46;54.68;53.17;59.26;;
73822;Laerm;62152;52.078;8.414;2023-04-19T10:47:47;54.90;53.36;61.57;;
73822;Laerm;62152;52.078;8.414;2023-04-19T10:51:52;54.68;53.24;56.60;;
73822;Laerm;62152;52.078;8.414;2023-04-19T10:55:53;54.68;53.38;56.24;;
73822;Laerm;62152;52.078;8.414;2023-04-19T11:00:17;54.67;53.24;55.88;;
73822;Laerm;62152;52.078;8.414;2023-04-19T11:04:22;54.67;53.45;55.83;;
73822;Laerm;62152;52.078;8.414;2023-04-19T11:08:24;54.69;53.35;55.99;;
73822;Laerm;62152;52.078;8.414;2023-04-19T11:12:25;54.69;53.30;56.04;;
73822;Laerm;62152;52.078;8.414;2023-04-19T11:16:26;54.69;53.41;56.03;;
73822;Laerm;62152;52.078;8.414;2023-04-19T11:20:27;54.68;53.24;55.92;;
73822;Laerm;62152;52.078;8.414;2023-04-19T11:24:29;54.95;53.20;80.62;;
73822;Laerm;62152;52.078;8.414;2023-04-19T11:28:32;54.67;53.32;56.30;;
73822;Laerm;62152;52.078;8.414;2023-04-19T11:32:33;54.68;53.39;55.86;;
73822;Laerm;62152;52.078;8.414;2023-04-19T11:40:58;54.66;52.95;55.98;;
73822;Laerm;62152;52.078;8.414;2023-04-19T11:44:59;54.68;53.43;55.98;;
73822;Laerm;62152;52.078;8.414;2023-04-19T11:49:00;54.69;53.27;56.59;;
73822;Laerm;62152;52.078;8.414;2023-04-19T11:53:13;54.69;53.45;55.86;;
73822;Laerm;62152;52.078;8.414;2023-04-19T11:57:27;54.68;52.81;55.97;;
73822;Laerm;62152;52.078;8.414;2023-04-19T12:01:28;54.70;53.48;56.35;;
73822;Laerm;62152;52.078;8.414;2023-04-19T12:05:29;54.70;53.28;55.91;;
73822;Laerm;62152;52.078;8.414;2023-04-19T12:09:33;54.68;53.36;55.87;;
73822;Laerm;62152;52.078;8.414;2023-04-19T12:13:36;54.69;53.31;56.56;;
73822;Laerm;62152;52.078;8.414;2023-04-19T12:17:55;54.69;53.28;59.41;;
73822;Laerm;62152;52.078;8.414;2023-04-19T12:22:07;54.68;53.32;56.00;;
73822;Laerm;62152;52.078;8.414;2023-04-19T12:26:08;54.68;53.33;55.97;;
73822;Laerm;62152;52.078;8.414;2023-04-19T12:30:11;54.69;53.38;55.90;;
73822;Laerm;62152;52.078;8.414;2023-04-19T12:34:12;54.68;53.41;55.81;;
73822;Laerm;62152;52.078;8.414;2023-04-19T12:38:13;54.70;53.21;56.04;;
73822;Laerm;62152;52.078;8.414;2023-04-19T12:42:14;54.70;53.45;56.08;;
73822;Laerm;62152;52.078;8.414;2023-04-19T12:46:16;54.78;53.26;61.13;;
73822;Laerm;62152;52.078;8.414;2023-04-19T12:50:17;54.81;53.52;60.25;;
73822;Laerm;62152;52.078;8.414;2023-04-19T12:54:18;54.68;53.44;55.89;;
73822;Laerm;62152;52.078;8.414;2023-04-19T12:58:18;54.70;53.18;57.65;;
73822;Laerm;62152;52.078;8.414;2023-04-19T13:02:21;54.69;53.41;58.30;;
73822;Laerm;62152;52.078;8.414;2023-04-19T13:06:21;54.84;53.30;78.32;;
73822;Laerm;62152;52.078;8.414;2023-04-19T13:10:22;54.68;53.35;55.96;;
73822;Laerm;62152;52.078;8.414;2023-04-19T13:14:25;54.69;53.33;56.18;;
73822;Laerm;62152;52.078;8.414;2023-04-19T13:18:27;54.70;53.38;56.24;;
73822;Laerm;62152;52.078;8.414;2023-04-19T13:22:28;54.70;53.35;55.91;;
73822;Laerm;62152;52.078;8.414;2023-04-19T13:26:29;54.68;53.03;55.91;;
73822;Laerm;62152;52.078;8.414;2023-04-19T13:30:30;54.67;53.34;55.84;;
73822;Laerm;62152;52.078;8.414;2023-04-19T13:34:32;54.66;52.98;56.06;;
73822;Laerm;62152;52.078;8.414;2023-04-19T13:38:33;54.68;53.26;56.60;;
73822;Laerm;62152;52.078;8.414;2023-04-19T13:42:34;54.68;53.45;55.93;;
73822;Laerm;62152;52.078;8.414;2023-04-19T13:46:35;54.69;53.30;55.83;;
73822;Laerm;62152;52.078;8.414;2023-04-19T13:50:37;54.69;53.31;55.89;;
73822;Laerm;62152;52.078;8.414;2023-04-19T13:54:38;54.68;53.32;55.89;;
73822;Laerm;62152;52.078;8.414;2023-04-19T13:58:38;54.69;53.23;56.28;;
73822;Laerm;62152;52.078;8.414;2023-04-19T14:02:40;54.69;53.60;55.87;;
73822;Laerm;62152;52.078;8.414;2023-04-19T14:06:42;54.68;53.38;55.92;;
73822;Laerm;62152;52.078;8.414;2023-04-19T14:10:43;54.68;53.34;55.98;;
73822;Laerm;62152;52.078;8.414;2023-04-19T14:14:44;54.67;53.47;55.90;;
73822;Laerm;62152;52.078;8.414;2023-04-19T14:18:45;54.67;53.47;57.41;;
73822;Laerm;62152;52.078;8.414;2023-04-19T14:22:47;54.67;53.45;55.90;;
73822;Laerm;62152;52.078;8.414;2023-04-19T14:26:48;54.67;53.21;55.99;;
73822;Laerm;62152;52.078;8.414;2023-04-19T14:30:49;54.66;53.04;55.89;;
73822;Laerm;62152;52.078;8.414;2023-04-19T14:34:50;54.68;53.20;60.59;;
73822;Laerm;62152;52.078;8.414;2023-04-19T14:38:52;54.66;53.26;57.22;;
73822;Laerm;62152;52.078;8.414;2023-04-19T14:42:53;54.68;53.25;62.33;;
73822;Laerm;62152;52.078;8.414;2023-04-19T14:46:54;54.88;53.18;63.22;;
73822;Laerm;62152;52.078;8.414;2023-04-19T14:50:54;54.65;53.40;56.35;;
73822;Laerm;62152;52.078;8.414;2023-04-19T14:54:57;54.67;53.22;57.63;;
73822;Laerm;62152;52.078;8.414;2023-04-19T14:58:57;54.67;53.18;55.99;;
73822;Laerm;62152;52.078;8.414;2023-04-19T15:02:59;54.67;53.19;55.88;;
73822;Laerm;62152;52.078;8.414;2023-04-19T15:07:02;54.67;53.31;59.81;;
73822;Laerm;62152;52.078;8.414;2023-04-19T15:15:07;54.63;53.14;55.75;;
73822;Laerm;62152;52.078;8.414;2023-04-19T15:19:08;54.65;53.33;61.53;;
73822;Laerm;62152;52.078;8.414;2023-04-19T15:23:09;54.65;53.16;55.75;;
73822;Laerm;62152;52.078;8.414;2023-04-19T15:27:11;54.66;53.40;56.29;;
73822;Laerm;62152;52.078;8.414;2023-04-19T15:35:13;56.64;52.56;79.74;;
73822;Laerm;62152;52.078;8.414;2023-04-19T15:39:14;59.64;53.30;80.81;;
73822;Laerm;62152;52.078;8.414;2023-04-19T15:43:16;60.04;36.20;86.69;;
73822;Laerm;62152;52.078;8.414;2023-04-19T15:47:17;56.50;53.29;78.25;;
73822;Laerm;62152;52.078;8.414;2023-04-19T15:51:18;56.49;53.25;84.62;;
73822;Laerm;62152;52.078;8.414;2023-04-19T15:55:19;54.93;53.28;67.41;;
73822;Laerm;62152;52.078;8.414;2023-04-19T15:59:21;54.82;53.40;67.32;;
73822;Laerm;62152;52.078;8.414;2023-04-19T16:03:22;54.65;53.40;56.21;;
73822;Laerm;62152;52.078;8.414;2023-04-19T16:07:23;54.69;53.31;66.70;;
73822;Laerm;62152;52.078;8.414;2023-04-19T16:11:24;62.31;53.14;84.85;;
73822;Laerm;62152;52.078;8.414;2023-04-19T16:15:27;57.34;53.34;80.03;;
73822;Laerm;62152;52.078;8.414;2023-04-19T16:19:27;61.54;51.85;86.63;;
73822;Laerm;62152;52.078;8.414;2023-04-19T16:23:28;65.83;53.49;92.74;;
73822;Laerm;62152;52.078;8.414;2023-04-19T16:27:29;58.86;53.22;79.63;;
73822;Laerm;62152;52.078;8.414;2023-04-19T16:31:31;59.19;54.02;83.00;;
73822;Laerm;62152;52.078;8.414;2023-04-19T16:35:32;58.80;50.97;83.63;;
73822;Laerm;62152;52.078;8.414;2023-04-19T16:39:33;57.93;54.15;79.63;;
73822;Laerm;62152;52.078;8.414;2023-04-19T16:43:34;59.05;55.62;78.02;;
73822;Laerm;62152;52.078;8.414;2023-04-19T16:47:36;61.81;40.71;83.68;;
73822;Laerm;62152;52.078;8.414;2023-04-19T16:51:37;59.09;56.00;74.06;;
73822;Laerm;62152;52.078;8.414;2023-04-19T16:55:38;56.75;53.44;76.74;;
73822;Laerm;62152;52.078;8.414;2023-04-19T16:59:39;60.41;52.91;81.38;;
73822;Laerm;62152;52.078;8.414;2023-04-19T17:03:41;56.73;35.04;83.54;;
73822;Laerm;62152;52.078;8.414;2023-04-19T17:07:42;55.14;52.92;66.89;;
73822;Laerm;62152;52.078;8.414;2023-04-19T17:11:43;58.43;51.99;81.64;;
73822;Laerm;62152;52.078;8.414;2023-04-19T17:15:44;62.26;53.13;92.25;;
73822;Laerm;62152;52.078;8.414;2023-04-19T17:19:46;58.04;51.95;80.73;;
73822;Laerm;62152;52.078;8.414;2023-04-19T17:23:47;58.74;51.90;84.18;;
73822;Laerm;62152;52.078;8.414;2023-04-19T17:27:48;55.09;53.33;75.00;;
73822;Laerm;62152;52.078;8.414;2023-04-19T17:31:49;55.12;53.07;68.82;;
73822;Laerm;62152;52.078;8.414;2023-04-19T17:35:51;55.17;53.29;72.69;;
73822;Laerm;62152;52.078;8.414;2023-04-19T17:39:52;55.16;53.35;72.93;;
73822;Laerm;62152;52.078;8.414;2023-04-19T17:43:53;55.06;53.29;68.96;;
73822;Laerm;62152;52.078;8.414;2023-04-19T17:47:54;55.28;52.51;74.11;;
73822;Laerm;62152;52.078;8.414;2023-04-19T17:51:56;54.84;53.35;61.97;;
73822;Laerm;62152;52.078;8.414;2023-04-19T17:55:57;55.70;53.17;76.35;;
73822;Laerm;62152;52.078;8.414;2023-04-19T17:59:58;59.17;30.89;85.39;;
73822;Laerm;62152;52.078;8.414;2023-04-19T18:03:59;57.71;52.48;77.67;;
73822;Laerm;62152;52.078;8.414;2023-04-19T18:08:01;60.33;52.64;78.68;;
73822;Laerm;62152;52.078;8.414;2023-04-19T18:12:02;58.38;53.41;80.35;;
73822;Laerm;62152;52.078;8.414;2023-04-19T18:16:04;55.29;53.39;73.12;;
73822;Laerm;62152;52.078;8.414;2023-04-19T18:20:06;55.02;53.53;71.80;;
73822;Laerm;62152;52.078;8.414;2023-04-19T18:24:09;54.88;53.19;66.15;;
73822;Laerm;62152;52.078;8.414;2023-04-19T18:28:10;55.35;53.44;79.98;;
73822;Laerm;62152;52.078;8.414;2023-04-19T18:32:10;55.10;53.37;68.68;;
73822;Laerm;62152;52.078;8.414;2023-04-19T18:36:11;54.94;53.32;65.29;;
73822;Laerm;62152;52.078;8.414;2023-04-19T18:40:13;59.74;51.20;86.23;;
73822;Laerm;62152;52.078;8.414;2023-04-19T18:44:14;58.76;53.43;84.23;;
73822;Laerm;62152;52.078;8.414;2023-04-19T18:48:15;58.78;52.63;82.00;;
73822;Laerm;62152;52.078;8.414;2023-04-19T18:52:17;63.35;53.60;81.92;;
73822;Laerm;62152;52.078;8.414;2023-04-19T18:56:19;57.94;53.49;85.55;;
73822;Laerm;62152;52.078;8.414;2023-04-19T19:00:20;55.36;53.42;74.26;;
73822;Laerm;62152;52.078;8.414;2023-04-19T19:04:22;54.84;52.40;64.40;;
73822;Laerm;62152;52.078;8.414;2023-04-19T19:08:23;55.15;53.41;69.90;;
73822;Laerm;62152;52.078;8.414;2023-04-19T19:12:25;55.03;53.43;68.86;;
73822;Laerm;62152;52.078;8.414;2023-04-19T19:16:26;54.96;53.35;64.71;;
73822;Laerm;62152;52.078;8.414;2023-04-19T19:20:27;67.91;53.30;81.11;;
73822;Laerm;62152;52.078;8.414;2023-04-19T19:24:28;54.91;53.43;65.64;;
73822;Laerm;62152;52.078;8.414;2023-04-19T19:28:30;54.90;53.44;65.13;;
73822;Laerm;62152;52.078;8.414;2023-04-19T19:32:31;54.91;53.49;63.61;;
73822;Laerm;62152;52.078;8.414;2023-04-19T19:36:32;54.84;53.37;61.55;;
73822;Laerm;62152;52.078;8.414;2023-04-19T19:40:32;54.94;53.31;67.04;;
73822;Laerm;62152;52.078;8.414;2023-04-19T19:44:35;55.60;53.26;76.93;;
73822;Laerm;62152;52.078;8.414;2023-04-19T19:48:35;55.20;53.46;69.81;;
73822;Laerm;62152;52.078;8.414;2023-04-19T19:52:37;54.91;53.40;68.90;;
73822;Laerm;62152;52.078;8.414;2023-04-19T19:56:37;55.04;53.37;74.00;;
73822;Laerm;62152;52.078;8.414;2023-04-19T20:04:41;54.91;53.22;68.50;;
73822;Laerm;62152;52.078;8.414;2023-04-19T20:08:42;57.44;53.41;89.43;;
73822;Laerm;62152;52.078;8.414;2023-04-19T20:12:43;56.69;53.31;78.26;;
73822;Laerm;62152;52.078;8.414;2023-04-19T20:16:45;57.70;51.83;79.44;;
73822;Laerm;62152;52.078;8.414;2023-04-19T20:20:46;54.74;53.37;57.37;;
73822;Laerm;62152;52.078;8.414;2023-04-19T20:24:47;54.77;53.24;57.57;;
73822;Laerm;62152;52.078;8.414;2023-04-19T20:28:47;54.76;53.47;57.21;;
73822;Laerm;62152;52.078;8.414;2023-04-19T20:32:50;54.74;53.36;59.32;;
73822;Laerm;62152;52.078;8.414;2023-04-19T20:36:50;54.76;53.17;60.28;;
73822;Laerm;62152;52.078;8.414;2023-04-19T20:40:51;54.75;53.38;66.71;;
73822;Laerm;62152;52.078;8.414;2023-04-19T20:44:52;54.67;53.38;55.95;;
73822;Laerm;62152;52.078;8.414;2023-04-19T20:48:55;54.89;53.27;60.87;;
73822;Laerm;62152;52.078;8.414;2023-04-19T20:52:55;54.68;53.42;55.91;;
73822;Laerm;62152;52.078;8.414;2023-04-19T20:56:59;54.68;53.43;56.01;;
73822;Laerm;62152;52.078;8.414;2023-04-19T21:05:02;54.71;52.66;58.45;;
73822;Laerm;62152;52.078;8.414;2023-04-19T21:09:03;54.70;52.13;56.32;;
73822;Laerm;62152;52.078;8.414;2023-04-19T21:13:04;56.43;53.45;87.25;;
73822;Laerm;62152;52.078;8.414;2023-04-19T21:17:04;54.79;53.28;66.89;;
73822;Laerm;62152;52.078;8.414;2023-04-19T21:21:07;54.91;52.16;74.52;;
73822;Laerm;62152;52.078;8.414;2023-04-19T21:25:09;56.21;51.54;86.10;;
73822;Laerm;62152;52.078;8.414;2023-04-19T21:29:10;54.68;53.25;56.20;;
73822;Laerm;62152;52.078;8.414;2023-04-19T21:33:11;54.66;53.35;55.98;;
73822;Laerm;62152;52.078;8.414;2023-04-19T21:37:13;54.66;53.42;55.84;;
73822;Laerm;62152;52.078;8.414;2023-04-19T21:41:14;54.66;53.01;55.96;;
73822;Laerm;62152;52.078;8.414;2023-04-19T21:45:15;54.66;53.45;56.05;;
73822;Laerm;62152;52.078;8.414;2023-04-19T21:49:16;54.67;53.19;55.90;;
73822;Laerm;62152;52.078;8.414;2023-04-19T21:57:19;54.65;52.53;55.95;;
73822;Laerm;62152;52.078;8.414;2023-04-19T22:01:20;54.67;53.40;55.92;;
73822;Laerm;62152;52.078;8.414;2023-04-19T22:05:20;54.67;53.34;57.09;;
73822;Laerm;62152;52.078;8.414;2023-04-19T22:09:23;54.66;53.16;55.94;;
73822;Laerm;62152;52.078;8.414;2023-04-19T22:13:24;54.67;53.32;55.97;;
73822;Laerm;62152;52.078;8.414;2023-04-19T22:17:24;54.67;53.08;55.90;;
73822;Laerm;62152;52.078;8.414;2023-04-19T22:21:26;54.67;53.17;55.98;;
73822;Laerm;62152;52.078;8.414;2023-04-19T22:25:28;54.68;53.16;57.69;;
73822;Laerm;62152;52.078;8.414;2023-04-19T22:29:29;54.68;53.23;55.88;;
73822;Laerm;62152;52.078;8.414;2023-04-19T22:33:30;54.68;53.35;55.90;;
73822;Laerm;62152;52.078;8.414;2023-04-19T22:37:31;54.67;53.21;55.90;;
73822;Laerm;62152;52.078;8.414;2023-04-19T22:41:33;54.68;53.36;60.23;;
73822;Laerm;62152;52.078;8.414;2023-04-19T22:45:34;54.66;53.26;55.82;;
73822;Laerm;62152;52.078;8.414;2023-04-19T22:49:35;54.89;53.28;61.48;;
73822;Laerm;62152;52.078;8.414;2023-04-19T22:53:36;54.67;53.39;55.91;;
73822;Laerm;62152;52.078;8.414;2023-04-19T22:57:38;54.67;53.50;55.85;;
73822;Laerm;62152;52.078;8.414;2023-04-19T23:01:39;54.67;53.38;55.87;;
73822;Laerm;62152;52.078;8.414;2023-04-19T23:05:40;54.68;53.51;55.91;;
73822;Laerm;62152;52.078;8.414;2023-04-19T23:09:41;54.68;53.50;55.87;;
73822;Laerm;62152;52.078;8.414;2023-04-19T23:13:43;54.68;53.37;55.85;;
73822;Laerm;62152;52.078;8.414;2023-04-19T23:17:44;54.68;53.33;55.84;;
73822;Laerm;62152;52.078;8.414;2023-04-19T23:21:44;54.70;53.44;56.21;;
73822;Laerm;62152;52.078;8.414;2023-04-19T23:25:45;54.69;53.32;55.87;;
73822;Laerm;62152;52.078;8.414;2023-04-19T23:29:47;54.69;53.27;55.86;;
73822;Laerm;62152;52.078;8.414;2023-04-19T23:33:48;54.69;53.35;55.92;;
73822;Laerm;62152;52.078;8.414;2023-04-19T23:37:49;54.69;53.25;55.85;;
73822;Laerm;62152;52.078;8.414;2023-04-19T23:41:50;54.69;53.44;55.91;;
73822;Laerm;62152;52.078;8.414;2023-04-19T23:45:52;54.68;53.36;55.86;;
73822;Laerm;62152;52.078;8.414;2023-04-19T23:53:54;54.66;52.93;55.88;;
73822;Laerm;62152;52.078;8.414;2023-04-19T23:57:54;54.67;53.44;55.89;;
